Buoy 60728

sailwx.info

Track history (hours):
 
Tides and Currents Weather Stations Pressure Air Temp Water Temp Dewpoint Dewpoint Depression Visibility Wind Speed Wind Dir Waves Ship Positions

Min Long Yu F60728

Last reported at 2017-Apr-24 06:17 UTC. Time now 2017-May-26 18:53 UTC.
Position N 24°18' E 118°14'.
Warning: this ship's position is 32 days out of date.

Length 22 m.

Type: Fishing. MMSI: 412445171.

Date/timePositionNaut miles runAvg speedWind from/ knotsBaromVisibWave heightAir tempDewpointWater temp
2017-Apr-24 06:17N 24°18' E 118°14'1 3.0
2017-Apr-24 06:00N 24°17' E 118°14'2 2.8
2017-Apr-24 05:15N 24°19' E 118°14'1 3.0
2017-Apr-24 05:00N 24°20' E 118°14'3 5.9
2017-Apr-24 04:27N 24°22' E 118°11'4 8.1
2017-Apr-24 04:00N 24°23' E 118°07'4 8.6
2017-Apr-24 03:30N 24°25' E 118°03'  
2017-Apr-16 18:40N 24°24' E 117°59'2 8.9
2017-Apr-16 18:29N 24°25' E 118°00'4 8.8
2017-Apr-16 18:00N 24°26' E 118°05'3 5.3
2017-Apr-16 17:30N 24°24' E 118°07'  
Track history (hours):
 
Tides and Currents Weather Stations Pressure Air Temp Water Temp Dewpoint Dewpoint Depression Visibility Wind Speed Wind Dir Waves Ship Positions

Min Long Yu F60728

Last reported at 2017-Apr-24 06:17 UTC. Time now 2017-May-26 18:53 UTC.
Position N 24°18' E 118°14'.
Warning: this ship's position is 32 days out of date.

Length 22 m.

Type: Fishing. MMSI: 412445171.

Date/timePositionNaut miles runAvg speedWind from/ knotsBaromVisibWave heightAir tempDewpointWater temp
2017-Apr-24 06:17N 24°18' E 118°14'1 3.0
2017-Apr-24 06:00N 24°17' E 118°14'2 2.8
2017-Apr-24 05:15N 24°19' E 118°14'1 3.0
2017-Apr-24 05:00N 24°20' E 118°14'3 5.9
2017-Apr-24 04:27N 24°22' E 118°11'4 8.1
2017-Apr-24 04:00N 24°23' E 118°07'4 8.6
2017-Apr-24 03:30N 24°25' E 118°03'  
2017-Apr-16 18:40N 24°24' E 117°59'2 8.9
2017-Apr-16 18:29N 24°25' E 118°00'4 8.8
2017-Apr-16 18:00N 24°26' E 118°05'3 5.3
2017-Apr-16 17:30N 24°24' E 118°07'  

Dump ship's entire track history